BCZ weather

Milyakburra Airport
Bickerton Island, Northern Territory, Australia

Public forecast

Using degrees Celsius for public forecast. Weather courtesy of forecast.io.

Closest aviation weather report (METAR) to Milyakburra Airport

Closest report is Groote Eylandt Airport, 19.0 nm (35.3 km) SE. Retrieved 2020/05/25 20:00 UTC (34 minutes ago):

YGTE 252000Z AUTO 11002KT 9999 // NCD 14/13 Q1016

Closest aviation forecast (TAF) to Milyakburra Airport

Closest forecast is Gove Airport, 97.6 nm (180.8 km) NNE. Retrieved 2020/05/25 20:00 UTC (34 minutes ago):

TAF YPGV 251852Z 2520/2608 13012KT 9999 SCT025